createdAt,value
2019-01-18T00:01:55.410Z,5.23
2019-01-18T00:04:24.235Z,5.53
2019-01-18T00:06:53.716Z,2.97
2019-01-18T00:09:22.544Z,5.60
2019-01-18T00:11:51.516Z,1.87
2019-01-18T00:14:20.298Z,5.17
2019-01-18T00:16:49.140Z,9.77
2019-01-18T00:19:17.914Z,3.97
2019-01-18T00:21:46.732Z,7.17
2019-01-18T00:24:15.469Z,4.10
2019-01-18T00:26:44.301Z,6.20
2019-01-18T00:29:13.207Z,6.17
2019-01-18T00:31:41.983Z,4.57
2019-01-18T00:34:10.786Z,3.00
2019-01-18T00:36:39.693Z,6.70
2019-01-18T00:39:08.618Z,7.20
2019-01-18T00:41:37.434Z,5.13
2019-01-18T00:44:06.218Z,7.20
2019-01-18T00:46:35.203Z,3.80
2019-01-18T00:49:04.185Z,3.43
2019-01-18T00:51:33.091Z,6.23
2019-01-18T00:54:01.869Z,4.23
2019-01-18T00:56:30.743Z,4.83
2019-01-18T00:58:59.490Z,4.20
2019-01-18T01:01:28.241Z,6.37
2019-01-18T01:03:57.566Z,8.05
2019-01-18T01:06:26.349Z,4.07
2019-01-18T01:08:55.133Z,5.27
2019-01-18T01:11:23.919Z,5.07
2019-01-18T01:13:52.710Z,4.80
2019-01-18T01:16:21.451Z,4.77
2019-01-18T01:18:50.672Z,5.13
2019-01-18T01:21:19.479Z,6.77
2019-01-18T01:23:48.309Z,4.90
2019-01-18T01:26:17.076Z,6.23
2019-01-18T01:28:45.823Z,4.37
2019-01-18T01:31:14.621Z,4.47
2019-01-18T01:33:43.424Z,2.80
2019-01-18T01:36:12.306Z,2.77
2019-01-18T01:38:41.078Z,2.27
2019-01-18T01:41:09.862Z,5.93
2019-01-18T01:43:38.632Z,4.97
2019-01-18T01:46:07.426Z,5.13
2019-01-18T01:48:36.334Z,3.13
2019-01-18T01:51:05.068Z,5.43
2019-01-18T01:53:33.864Z,3.73
2019-01-18T01:56:03.183Z,5.53
2019-01-18T01:58:32.064Z,4.80
2019-01-18T02:01:00.796Z,4.80
2019-01-18T02:03:29.812Z,5.90
2019-01-18T02:05:58.642Z,7.43
2019-01-18T02:08:29.642Z,6.13
2019-01-18T02:10:58.413Z,4.13
2019-01-18T02:13:27.199Z,5.70
2019-01-18T02:15:56.048Z,4.67
2019-01-18T02:18:24.783Z,4.53
2019-01-18T02:20:53.624Z,6.73
2019-01-18T02:23:23.111Z,3.47
2019-01-18T02:25:51.886Z,4.67
2019-01-18T02:28:20.694Z,2.63
2019-01-18T02:30:49.541Z,3.83
2019-01-18T02:33:18.304Z,3.90
2019-01-18T02:35:47.169Z,3.07
2019-01-18T02:38:15.938Z,6.67
2019-01-18T02:40:44.702Z,3.40
2019-01-18T02:43:13.469Z,3.93
2019-01-18T02:45:42.270Z,3.10
2019-01-18T02:48:11.024Z,6.23
2019-01-18T02:50:39.802Z,3.80
2019-01-18T02:53:08.542Z,6.03
2019-01-18T02:55:37.390Z,8.10
2019-01-18T02:58:06.234Z,3.97
2019-01-18T03:00:35.002Z,4.40
2019-01-18T03:03:03.978Z,5.43
2019-01-18T03:05:32.784Z,6.40
2019-01-18T03:08:01.576Z,6.63
2019-01-18T03:10:30.518Z,4.33
2019-01-18T03:12:59.409Z,4.53
2019-01-18T03:15:28.209Z,6.63
2019-01-18T03:17:56.965Z,4.03
2019-01-18T03:20:25.690Z,5.60
2019-01-18T03:22:54.502Z,6.97
2019-01-18T03:25:27.202Z,5.50
2019-01-18T03:27:56.045Z,3.07
2019-01-18T03:30:24.789Z,8.70
2019-01-18T03:32:53.583Z,3.80
2019-01-18T03:35:22.646Z,5.67
2019-01-18T03:37:51.467Z,5.23
2019-01-18T03:40:20.430Z,5.97
2019-01-18T03:42:49.525Z,5.90
2019-01-18T03:45:18.652Z,5.40
2019-01-18T03:47:47.591Z,4.50
2019-01-18T03:50:17.892Z,4.47
2019-01-18T03:52:46.745Z,3.93
2019-01-18T03:55:16.044Z,2.93
2019-01-18T03:57:44.784Z,4.13
2019-01-18T04:00:14.763Z,5.13
2019-01-18T04:02:44.418Z,5.60
2019-01-18T04:05:13.306Z,5.53
2019-01-18T04:07:42.042Z,4.43
2019-01-18T04:10:12.354Z,5.20
2019-01-18T04:12:41.106Z,4.57
2019-01-18T04:15:10.965Z,4.33
2019-01-18T04:17:39.746Z,4.30
2019-01-18T04:20:08.998Z,6.30
2019-01-18T04:22:37.738Z,5.83
2019-01-18T04:25:07.466Z,7.33
2019-01-18T04:27:36.256Z,3.60
2019-01-18T04:30:05.894Z,6.93
2019-01-18T04:32:34.660Z,4.33
2019-01-18T04:35:03.517Z,6.03
2019-01-18T04:37:32.277Z,4.57
2019-01-18T04:40:01.067Z,7.77
2019-01-18T04:42:29.818Z,5.07
2019-01-18T04:44:58.724Z,7.77
2019-01-18T04:47:27.461Z,4.73
2019-01-18T04:49:56.275Z,4.92
2019-01-18T04:52:25.049Z,3.73
2019-01-18T04:54:53.842Z,6.17
2019-01-18T04:57:22.644Z,5.17
2019-01-18T04:59:51.355Z,5.00
2019-01-18T05:02:20.920Z,5.57
2019-01-18T05:04:49.639Z,6.00
2019-01-18T05:07:18.399Z,6.27
2019-01-18T05:09:47.176Z,6.70
2019-01-18T05:12:16.019Z,6.27
2019-01-18T05:14:44.782Z,6.50
2019-01-18T05:17:13.556Z,6.60
2019-01-18T05:19:42.391Z,6.53
2019-01-18T05:22:12.075Z,5.43
2019-01-18T05:24:40.834Z,8.83
2019-01-18T05:27:09.828Z,4.30
2019-01-18T05:29:38.598Z,7.00
2019-01-18T05:32:07.358Z,7.93
2019-01-18T05:34:36.184Z,8.07
2019-01-18T05:37:05.007Z,6.67
2019-01-18T05:39:33.810Z,5.23
2019-01-18T05:42:02.680Z,6.10
2019-01-18T05:44:31.464Z,4.83
2019-01-18T05:47:00.261Z,3.43
2019-01-18T05:49:29.099Z,9.07
2019-01-18T05:51:57.854Z,9.70
2019-01-18T05:54:26.625Z,6.57
2019-01-18T05:56:55.431Z,7.17
2019-01-18T05:59:24.502Z,6.83
2019-01-18T06:01:53.270Z,7.53
2019-01-18T06:04:23.090Z,7.00
2019-01-18T06:06:51.854Z,5.07
2019-01-18T06:09:20.826Z,6.97
2019-01-18T06:11:49.599Z,5.33
2019-01-18T06:14:18.370Z,5.00
2019-01-18T06:16:47.150Z,4.73
2019-01-18T06:19:15.946Z,7.33
2019-01-18T06:21:44.715Z,5.30
2019-01-18T06:24:13.474Z,9.00
2019-01-18T06:26:42.239Z,9.43
2019-01-18T06:29:11.026Z,11.73
2019-01-18T06:31:39.941Z,7.43
2019-01-18T06:34:09.166Z,7.43
2019-01-18T06:36:39.286Z,9.33
2019-01-18T06:39:08.125Z,7.10
2019-01-18T06:41:49.290Z,6.30
2019-01-18T06:44:18.108Z,7.77
2019-01-18T06:46:46.968Z,7.13
2019-01-18T06:49:17.864Z,7.37
2019-01-18T06:51:46.711Z,4.27
2019-01-18T06:54:15.513Z,8.43
2019-01-18T06:56:44.341Z,10.63
2019-01-18T06:59:13.118Z,6.70
2019-01-18T07:01:42.696Z,7.90
2019-01-18T07:04:11.447Z,9.77
2019-01-18T07:06:40.247Z,8.33
2019-01-18T07:09:09.132Z,9.00
2019-01-18T07:11:37.953Z,7.80
2019-01-18T07:14:06.754Z,9.53
2019-01-18T07:16:35.629Z,4.37
2019-01-18T07:19:04.477Z,7.80
2019-01-18T07:21:33.330Z,8.50
2019-01-18T07:24:02.187Z,5.67
2019-01-18T07:26:31.121Z,6.90
2019-01-18T07:28:59.937Z,7.90
2019-01-18T07:31:29.049Z,14.03
2019-01-18T07:33:57.832Z,5.27
2019-01-18T07:36:26.728Z,5.90
2019-01-18T07:39:00.479Z,3.97
2019-01-18T07:41:26.280Z,7.97
2019-01-18T07:43:55.101Z,6.60
2019-01-18T07:46:23.956Z,5.13
2019-01-18T07:48:52.765Z,5.33
2019-01-18T07:51:21.637Z,3.93
2019-01-18T07:53:50.394Z,6.00
2019-01-18T07:56:21.736Z,6.27
2019-01-18T07:58:50.548Z,4.13
2019-01-18T08:01:22.288Z,6.90
2019-01-18T08:03:50.515Z,6.27
2019-01-18T08:06:19.402Z,6.73
2019-01-18T08:08:48.740Z,8.97
2019-01-18T08:11:17.526Z,6.13
2019-01-18T08:13:46.378Z,7.47
2019-01-18T08:16:15.212Z,5.50
2019-01-18T08:18:44.019Z,6.50
2019-01-18T08:21:12.795Z,6.83
2019-01-18T08:23:41.558Z,6.85
2019-01-18T08:26:10.355Z,5.20
2019-01-18T08:28:39.342Z,9.53
2019-01-18T08:31:08.123Z,9.47
2019-01-18T08:33:36.941Z,8.47
2019-01-18T08:36:05.844Z,9.03
2019-01-18T08:38:34.671Z,10.63
2019-01-18T08:41:03.537Z,7.23
2019-01-18T08:43:32.372Z,7.73
2019-01-18T08:46:02.119Z,8.83
2019-01-18T08:48:31.647Z,7.50
2019-01-18T08:51:00.872Z,5.30
2019-01-18T08:53:29.604Z,5.00
2019-01-18T08:55:58.442Z,15.10
2019-01-18T08:58:27.283Z,8.57
2019-01-18T09:00:56.128Z,5.20
2019-01-18T09:03:24.871Z,4.97
2019-01-18T09:05:53.673Z,6.97
2019-01-18T09:08:22.475Z,4.73
2019-01-18T09:10:51.365Z,9.80
2019-01-18T09:13:20.130Z,7.57
2019-01-18T09:15:48.967Z,8.60
2019-01-18T09:18:17.724Z,5.97
2019-01-18T09:20:46.500Z,8.20
2019-01-18T09:23:15.316Z,7.10
2019-01-18T09:25:44.136Z,7.80
2019-01-18T09:28:12.990Z,8.93
2019-01-18T09:30:41.799Z,4.00
2019-01-18T09:33:10.602Z,5.77
2019-01-18T09:35:39.814Z,7.43
2019-01-18T09:38:10.078Z,6.13
2019-01-18T09:40:38.828Z,8.83
2019-01-18T09:43:07.667Z,7.57
2019-01-18T09:45:36.467Z,7.47
2019-01-18T09:48:05.810Z,6.33
2019-01-18T09:50:34.628Z,6.80
2019-01-18T09:53:03.443Z,8.40
2019-01-18T09:55:32.471Z,5.40
2019-01-18T09:58:01.275Z,9.10
2019-01-18T10:00:31.127Z,6.30
2019-01-18T10:03:00.213Z,7.13
2019-01-18T10:05:29.233Z,6.77
2019-01-18T10:08:00.304Z,6.13
2019-01-18T10:10:29.155Z,6.77
2019-01-18T10:12:57.912Z,5.27
2019-01-18T10:15:28.950Z,6.00
2019-01-18T10:18:00.728Z,4.40
2019-01-18T10:20:28.381Z,6.13
2019-01-18T10:22:57.193Z,7.13
2019-01-18T10:25:25.941Z,7.50
2019-01-18T10:27:54.789Z,5.13
2019-01-18T10:30:23.975Z,4.77
2019-01-18T10:32:52.762Z,6.67
2019-01-18T10:35:21.765Z,6.67
2019-01-18T10:37:50.581Z,6.20
2019-01-18T10:40:19.858Z,3.97
2019-01-18T10:42:49.001Z,5.50
2019-01-18T10:45:17.919Z,7.50
2019-01-18T10:47:46.768Z,7.70
2019-01-18T10:50:22.914Z,7.40
2019-01-18T10:52:51.719Z,6.90
2019-01-18T10:55:20.522Z,5.07
2019-01-18T10:57:49.345Z,5.23
2019-01-18T11:00:20.665Z,5.17
2019-01-18T11:02:49.650Z,7.53
2019-01-18T11:05:18.629Z,9.17
2019-01-18T11:07:47.386Z,6.23
2019-01-18T11:10:16.198Z,6.50
2019-01-18T11:12:44.978Z,6.27
2019-01-18T11:15:16.812Z,8.13
2019-01-18T11:17:46.022Z,5.37
2019-01-18T11:20:19.099Z,7.17
2019-01-18T11:22:47.974Z,5.87
2019-01-18T11:25:16.792Z,9.33
2019-01-18T11:27:45.551Z,6.33
2019-01-18T11:30:14.945Z,9.63
2019-01-18T11:32:43.695Z,7.03
2019-01-18T11:35:12.474Z,7.93
2019-01-18T11:37:41.322Z,5.83
2019-01-18T11:40:12.055Z,8.27
2019-01-18T11:42:40.879Z,7.57
2019-01-18T11:45:09.800Z,6.77
2019-01-18T11:47:38.591Z,5.50
2019-01-18T11:50:09.508Z,8.10
2019-01-18T11:52:38.518Z,5.50
2019-01-18T11:55:07.340Z,5.87
2019-01-18T11:57:36.174Z,5.97
2019-01-18T12:00:06.234Z,6.67
2019-01-18T12:02:35.018Z,9.37
2019-01-18T12:05:03.946Z,10.63
2019-01-18T12:07:33.327Z,8.70
2019-01-18T12:10:04.411Z,10.20
2019-01-18T12:12:33.238Z,7.83
2019-01-18T12:15:04.449Z,15.40
2019-01-18T12:17:33.715Z,7.30
2019-01-18T12:20:02.570Z,9.40
2019-01-18T12:22:31.396Z,8.57
2019-01-18T12:25:00.290Z,8.37
2019-01-18T12:27:29.598Z,10.90
2019-01-18T12:29:58.434Z,7.30
2019-01-18T12:32:28.875Z,10.50
2019-01-18T12:34:57.787Z,6.83
2019-01-18T12:37:26.573Z,8.30
2019-01-18T12:39:55.378Z,11.13
2019-01-18T12:42:26.540Z,9.43
2019-01-18T12:44:55.295Z,8.27
2019-01-18T12:47:24.126Z,10.80
2019-01-18T12:49:52.900Z,11.40
2019-01-18T12:52:21.744Z,10.83
2019-01-18T12:54:50.542Z,7.33
2019-01-18T12:57:19.375Z,6.67
2019-01-18T12:59:48.223Z,8.53
2019-01-18T13:02:17.038Z,7.43
2019-01-18T13:04:45.880Z,11.07
2019-01-18T13:07:14.730Z,7.77
2019-01-18T13:09:43.537Z,8.23
2019-01-18T13:12:12.365Z,6.93
2019-01-18T13:14:41.194Z,7.63
2019-01-18T13:17:10.660Z,8.27
2019-01-18T13:19:39.453Z,7.57
2019-01-18T13:22:08.219Z,13.23
2019-01-18T13:24:37.112Z,11.57
2019-01-18T13:27:06.174Z,8.70
2019-01-18T13:29:35.004Z,12.27
2019-01-18T13:32:04.248Z,11.67
2019-01-18T13:34:33.074Z,13.13
2019-01-18T13:37:01.879Z,13.13
2019-01-18T13:39:30.660Z,12.93
2019-01-18T13:42:00.010Z,10.00
2019-01-18T13:44:28.946Z,10.77
2019-01-18T13:46:57.727Z,14.30
2019-01-18T13:49:26.568Z,15.47
2019-01-18T13:51:55.404Z,10.40
2019-01-18T13:54:24.232Z,10.80
2019-01-18T13:56:53.088Z,11.87
2019-01-18T13:59:24.028Z,10.37
2019-01-18T14:01:52.924Z,10.10
2019-01-18T14:04:21.776Z,11.13
2019-01-18T14:06:50.577Z,11.40
2019-01-18T14:09:19.354Z,12.00
2019-01-18T14:11:48.226Z,6.90
2019-01-18T14:14:18.599Z,5.07
2019-01-18T14:16:47.517Z,8.37
2019-01-18T14:19:16.546Z,9.43
2019-01-18T14:21:45.357Z,9.37
2019-01-18T14:24:14.105Z,8.17
2019-01-18T14:26:42.941Z,9.33
2019-01-18T14:29:11.805Z,11.43
2019-01-18T14:31:41.534Z,10.00
2019-01-18T14:34:10.539Z,12.73
2019-01-18T14:36:39.437Z,10.63
2019-01-18T14:39:08.617Z,13.30
2019-01-18T14:41:37.478Z,12.20
2019-01-18T14:44:06.859Z,12.80
2019-01-18T14:46:35.925Z,10.97
2019-01-18T14:49:04.829Z,13.60
2019-01-18T14:51:33.759Z,11.80
2019-01-18T14:54:02.546Z,11.60
2019-01-18T14:56:31.408Z,17.27
2019-01-18T14:59:00.212Z,13.10
2019-01-18T15:01:29.103Z,13.67
2019-01-18T15:03:58.023Z,20.10
2019-01-18T15:06:26.835Z,15.77
2019-01-18T15:08:55.677Z,15.97
2019-01-18T15:11:24.596Z,15.00
2019-01-18T15:13:53.440Z,13.77
2019-01-18T15:16:22.376Z,18.73
2019-01-18T15:18:51.178Z,19.97
2019-01-18T15:21:20.080Z,16.13
2019-01-18T15:23:48.964Z,15.67
2019-01-18T15:26:18.496Z,17.77
2019-01-18T15:28:47.503Z,18.03
2019-01-18T15:31:16.390Z,18.37
2019-01-18T15:33:45.259Z,17.57
2019-01-18T15:36:14.146Z,20.60
2019-01-18T15:38:43.363Z,18.13
2019-01-18T15:41:12.167Z,16.00
2019-01-18T15:43:41.019Z,16.00
2019-01-18T15:46:09.856Z,22.73
2019-01-18T15:48:38.698Z,14.73
2019-01-18T15:51:07.598Z,15.07
2019-01-18T15:53:36.469Z,14.57
2019-01-18T15:56:05.375Z,15.10
2019-01-18T15:58:34.237Z,20.60
2019-01-18T16:01:03.055Z,17.73
2019-01-18T16:03:31.846Z,20.70
2019-01-18T16:06:00.711Z,17.47
2019-01-18T16:08:29.652Z,16.63
2019-01-18T16:10:58.518Z,19.93
2019-01-18T16:13:27.628Z,19.23
2019-01-18T16:15:58.242Z,20.37
2019-01-18T16:18:27.120Z,21.30
2019-01-18T16:20:56.038Z,19.20
2019-01-18T16:23:24.903Z,20.70
2019-01-18T16:25:53.758Z,17.67
2019-01-18T16:28:22.586Z,16.47
2019-01-18T16:30:51.384Z,20.33
2019-01-18T16:33:23.554Z,19.63
2019-01-18T16:35:50.926Z,22.63
2019-01-18T16:38:19.792Z,17.83
2019-01-18T16:40:49.121Z,16.32
2019-01-18T16:43:19.790Z,18.97
2019-01-18T16:45:49.126Z,20.17
2019-01-18T16:48:18.011Z,19.37
2019-01-18T16:50:46.797Z,19.70
2019-01-18T16:53:15.722Z,18.43
2019-01-18T16:55:44.756Z,17.50
2019-01-18T16:58:13.588Z,16.60
2019-01-18T17:00:42.936Z,18.70
2019-01-18T17:03:11.771Z,19.47
2019-01-18T17:05:40.639Z,16.07
2019-01-18T17:08:09.505Z,22.03
2019-01-18T17:10:40.659Z,16.67
2019-01-18T17:13:09.551Z,14.77
2019-01-18T17:15:38.442Z,21.80
2019-01-18T17:18:07.347Z,16.63
2019-01-18T17:20:37.467Z,17.70
2019-01-18T17:23:06.367Z,17.80
2019-01-18T17:25:35.451Z,22.60
2019-01-18T17:28:04.640Z,20.83
2019-01-18T17:30:33.527Z,24.20
2019-01-18T17:33:02.430Z,23.73
2019-01-18T17:35:33.609Z,23.97
2019-01-18T17:38:05.291Z,22.50
2019-01-18T17:40:36.785Z,30.13
2019-01-18T17:43:27.495Z,34.90
2019-01-18T17:46:18.437Z,36.80
2019-01-18T17:49:09.339Z,29.43
2019-01-18T17:51:45.944Z,26.00
2019-01-18T17:54:43.079Z,26.57
2019-01-18T17:57:18.359Z,24.90
2019-01-18T18:00:07.253Z,27.90
2019-01-18T18:02:51.936Z,26.50
2019-01-18T18:05:38.354Z,25.07
2019-01-18T18:08:20.460Z,24.37
2019-01-18T18:11:14.504Z,23.57
2019-01-18T18:13:50.182Z,22.83
2019-01-18T18:16:36.004Z,17.60
2019-01-18T18:19:36.222Z,16.67
2019-01-18T18:22:15.088Z,16.83
2019-01-18T18:25:03.605Z,16.47
2019-01-18T18:27:48.501Z,20.00
2019-01-18T18:30:22.924Z,19.57
2019-01-18T18:33:13.543Z,18.70
2019-01-18T18:36:07.397Z,17.57
2019-01-18T18:38:54.261Z,17.17
2019-01-18T18:41:54.460Z,19.53
2019-01-18T18:44:54.647Z,16.63
2019-01-18T18:47:31.290Z,21.23
2019-01-18T18:50:28.416Z,18.07
2019-01-18T18:53:11.911Z,16.17
2019-01-18T18:56:01.098Z,15.20
2019-01-18T18:58:46.736Z,18.43
2019-01-18T19:01:37.705Z,16.43
2019-01-18T19:04:13.602Z,18.27
2019-01-18T19:07:01.600Z,22.20
2019-01-18T19:09:33.382Z,19.20
2019-01-18T19:12:25.417Z,18.13
2019-01-18T19:15:22.203Z,16.67
2019-01-18T19:18:08.591Z,18.70
2019-01-18T19:21:05.789Z,18.27
2019-01-18T19:23:52.526Z,21.77
2019-01-18T19:26:49.451Z,16.97
2019-01-18T19:29:24.044Z,17.50
2019-01-18T19:32:12.109Z,14.70
2019-01-18T19:34:44.775Z,18.20
2019-01-18T19:37:31.191Z,20.20
2019-01-18T19:40:10.368Z,16.90
2019-01-18T19:42:58.341Z,19.20
2019-01-18T19:45:31.882Z,17.53
2019-01-18T19:48:22.934Z,15.53
2019-01-18T19:50:59.592Z,17.97
2019-01-18T19:53:44.451Z,15.87
2019-01-18T19:56:32.654Z,17.63
2019-01-18T19:59:29.514Z,20.53
2019-01-18T20:02:17.505Z,19.83
2019-01-18T20:04:58.297Z,21.63
2019-01-18T20:07:58.416Z,19.13
2019-01-18T20:10:34.541Z,16.00
2019-01-18T20:13:18.745Z,17.13
2019-01-18T20:16:09.873Z,14.83
2019-01-18T20:19:12.996Z,16.63
2019-01-18T20:22:01.292Z,22.20
2019-01-18T20:24:41.940Z,18.27
2019-01-18T20:27:17.832Z,17.97
2019-01-18T20:30:03.792Z,21.47
2019-01-18T20:32:35.873Z,24.10
2019-01-18T20:35:29.646Z,17.07
2019-01-18T20:38:02.714Z,19.47
2019-01-18T20:40:49.256Z,19.67
2019-01-18T20:43:39.043Z,22.50
2019-01-18T20:46:41.400Z,21.17
2019-01-18T20:49:24.426Z,19.20
2019-01-18T20:52:11.124Z,26.50
2019-01-18T20:54:47.915Z,19.53
2019-01-18T20:57:41.816Z,19.93
2019-01-18T21:00:35.927Z,21.27
2019-01-18T21:03:27.499Z,17.37
2019-01-18T21:05:59.846Z,18.87
2019-01-18T21:08:50.866Z,18.00
2019-01-18T21:11:33.831Z,16.60
2019-01-18T21:14:09.439Z,18.00
2019-01-18T21:17:00.425Z,17.50
2019-01-18T21:19:34.300Z,16.67
2019-01-18T21:22:34.472Z,16.37
2019-01-18T21:25:16.501Z,16.43
2019-01-18T21:27:54.324Z,20.47
2019-01-18T21:30:29.313Z,17.07
2019-01-18T21:33:05.857Z,18.57
2019-01-18T21:35:52.208Z,19.27
2019-01-18T21:38:43.253Z,20.50
2019-01-18T21:41:23.567Z,18.47
2019-01-18T21:44:29.678Z,22.17
2019-01-18T21:47:26.545Z,19.47
2019-01-18T21:50:01.586Z,19.73
2019-01-18T21:52:42.086Z,15.57
2019-01-18T21:55:20.094Z,16.20
2019-01-18T21:58:10.048Z,15.80
2019-01-18T22:00:56.674Z,17.80
2019-01-18T22:03:57.004Z,18.40
2019-01-18T22:06:30.686Z,16.70
2019-01-18T22:09:08.022Z,19.57
2019-01-18T22:11:46.461Z,20.07
2019-01-18T22:14:52.358Z,15.70
2019-01-18T22:17:58.261Z,16.50
2019-01-18T22:20:39.589Z,16.57
2019-01-18T22:23:29.478Z,16.10
2019-01-18T22:26:16.030Z,18.87
2019-01-18T22:28:50.059Z,18.53
2019-01-18T22:31:27.670Z,19.80
2019-01-18T22:34:11.691Z,18.27
2019-01-18T22:37:02.647Z,17.03
2019-01-18T22:39:38.442Z,19.20
2019-01-18T22:42:26.363Z,20.97
2019-01-18T22:45:32.540Z,15.60
2019-01-18T22:48:07.831Z,17.47
2019-01-18T22:50:40.041Z,18.97
2019-01-18T22:53:37.179Z,18.77
2019-01-18T22:56:19.895Z,18.60
2019-01-18T22:59:22.710Z,15.93
2019-01-18T23:01:59.711Z,19.30
2019-01-18T23:04:46.323Z,17.53
2019-01-18T23:07:34.699Z,17.40
2019-01-18T23:10:31.776Z,18.63
2019-01-18T23:13:25.464Z,18.20
2019-01-18T23:16:14.406Z,18.47
2019-01-18T23:19:01.034Z,18.67
2019-01-18T23:21:47.326Z,15.63
2019-01-18T23:24:23.117Z,14.90
2019-01-18T23:27:11.804Z,15.73
2019-01-18T23:29:45.790Z,14.97
2019-01-18T23:32:46.004Z,16.10
2019-01-18T23:35:31.251Z,18.60
2019-01-18T23:38:09.101Z,14.43
2019-01-18T23:40:53.952Z,18.37
2019-01-18T23:43:50.958Z,17.57
2019-01-18T23:46:42.543Z,19.00
2019-01-18T23:49:30.467Z,15.93
2019-01-18T23:52:21.751Z,16.30
2019-01-18T23:54:53.139Z,14.17
2019-01-18T23:57:50.073Z,16.73
